createdAt,value
2023-01-21T00:01:04.558Z,20.95
2023-01-21T00:03:31.721Z,21.27
2023-01-21T00:05:58.777Z,21.02
2023-01-21T00:08:27.101Z,21.35
2023-01-21T00:10:55.343Z,20.55
2023-01-21T00:13:22.644Z,20.83
2023-01-21T00:15:49.764Z,20.42
2023-01-21T00:18:16.854Z,18.88
2023-01-21T00:20:45.622Z,19.33
2023-01-21T00:23:12.899Z,21.00
2023-01-21T00:25:40.155Z,19.88
2023-01-21T00:28:07.254Z,18.90
2023-01-21T00:30:34.307Z,19.23
2023-01-21T00:33:01.386Z,19.08
2023-01-21T00:35:28.447Z,19.98
2023-01-21T00:37:56.158Z,19.30
2023-01-21T00:40:23.251Z,18.15
2023-01-21T00:42:50.277Z,18.00
2023-01-21T00:45:17.530Z,18.80
2023-01-21T00:47:44.586Z,19.17
2023-01-21T00:50:11.631Z,18.05
2023-01-21T00:52:38.785Z,17.13
2023-01-21T00:55:06.434Z,17.63
2023-01-21T00:57:33.706Z,17.88
2023-01-21T01:00:00.937Z,17.90
2023-01-21T01:02:27.964Z,17.17
2023-01-21T01:04:55.180Z,18.55
2023-01-21T01:07:22.282Z,19.58
2023-01-21T01:09:49.309Z,17.35
2023-01-21T01:12:16.425Z,17.30
2023-01-21T01:14:43.422Z,17.40
2023-01-21T01:17:10.979Z,17.08
2023-01-21T01:19:37.979Z,18.02
2023-01-21T01:22:04.977Z,17.92
2023-01-21T01:24:32.105Z,17.30
2023-01-21T01:26:59.119Z,17.58
2023-01-21T01:29:26.472Z,17.92
2023-01-21T01:31:53.521Z,16.45
2023-01-21T01:34:20.523Z,16.95
2023-01-21T01:36:49.489Z,17.35
2023-01-21T01:39:16.487Z,17.08
2023-01-21T01:41:43.647Z,16.70
2023-01-21T01:44:48.002Z,16.55
2023-01-21T01:47:15.778Z,16.55
2023-01-21T01:49:43.119Z,17.48
2023-01-21T01:52:13.078Z,18.05
2023-01-21T01:54:45.742Z,18.98
2023-01-21T01:57:15.855Z,17.87
2023-01-21T01:59:43.436Z,17.35
2023-01-21T02:02:14.961Z,18.60
2023-01-21T02:04:47.079Z,17.33
2023-01-21T02:07:15.800Z,16.52
2023-01-21T02:09:42.980Z,18.52
2023-01-21T02:12:10.255Z,16.27
2023-01-21T02:14:42.804Z,18.23
2023-01-21T02:17:31.074Z,18.10
2023-01-21T02:20:41.966Z,19.88
2023-01-21T02:23:23.086Z,18.38
2023-01-21T02:26:33.662Z,17.38
2023-01-21T02:29:09.863Z,16.20
2023-01-21T02:31:54.093Z,17.15
2023-01-21T02:34:42.648Z,17.70
2023-01-21T02:37:43.897Z,18.15
2023-01-21T02:40:21.883Z,18.25
2023-01-21T02:43:01.133Z,18.10
2023-01-21T02:45:38.674Z,18.55
2023-01-21T02:48:17.022Z,17.13
2023-01-21T02:50:50.514Z,18.67
2023-01-21T02:53:29.072Z,15.85
2023-01-21T02:56:00.221Z,16.42
2023-01-21T02:58:30.780Z,17.17
2023-01-21T03:01:06.456Z,16.83
2023-01-21T03:04:07.563Z,16.92
2023-01-21T03:06:56.047Z,17.55
2023-01-21T03:09:26.377Z,17.67
2023-01-21T03:11:56.318Z,19.17
2023-01-21T03:14:48.124Z,18.83
2023-01-21T03:17:41.609Z,17.95
2023-01-21T03:20:26.535Z,18.95
2023-01-21T03:22:59.526Z,16.88
2023-01-21T03:25:31.179Z,17.77
2023-01-21T03:28:00.600Z,17.83
2023-01-21T03:30:29.923Z,17.50
2023-01-21T03:32:58.424Z,17.80
2023-01-21T03:35:37.565Z,18.17
2023-01-21T03:38:16.388Z,20.23
2023-01-21T03:40:48.762Z,17.65
2023-01-21T03:43:15.792Z,18.83
2023-01-21T03:46:04.178Z,17.38
2023-01-21T03:48:41.484Z,18.70
2023-01-21T03:51:26.246Z,18.13
2023-01-21T03:53:57.826Z,16.73
2023-01-21T03:56:26.347Z,17.05
2023-01-21T03:58:53.879Z,16.17
2023-01-21T04:01:21.287Z,16.88
2023-01-21T04:03:48.510Z,15.55
2023-01-21T04:06:23.303Z,16.63
2023-01-21T04:08:51.146Z,16.05
2023-01-21T04:11:18.345Z,17.42
2023-01-21T04:13:45.433Z,18.58
2023-01-21T04:16:12.686Z,18.58
2023-01-21T04:18:39.929Z,17.63
2023-01-21T04:21:07.228Z,16.83
2023-01-21T04:23:34.308Z,18.05
2023-01-21T04:26:01.369Z,17.45
2023-01-21T04:28:28.393Z,17.25
2023-01-21T04:30:55.442Z,17.20
2023-01-21T04:33:22.543Z,17.23
2023-01-21T04:35:49.601Z,17.92
2023-01-21T04:38:17.003Z,17.20
2023-01-21T04:40:44.137Z,16.83
2023-01-21T04:43:11.188Z,18.20
2023-01-21T04:45:38.273Z,17.75
2023-01-21T04:48:05.437Z,17.65
2023-01-21T04:50:32.505Z,17.67
2023-01-21T04:52:59.524Z,18.00
2023-01-21T04:55:26.589Z,18.45
2023-01-21T04:57:53.680Z,19.73
2023-01-21T05:00:20.930Z,17.40
2023-01-21T05:02:48.035Z,18.77
2023-01-21T05:05:15.172Z,18.95
2023-01-21T05:07:42.250Z,18.90
2023-01-21T05:10:15.911Z,19.58
2023-01-21T05:12:43.480Z,18.45
2023-01-21T05:15:12.114Z,18.70
2023-01-21T05:17:39.192Z,18.35
2023-01-21T05:20:06.895Z,20.02
2023-01-21T05:22:33.881Z,20.35
2023-01-21T05:25:00.995Z,17.27
2023-01-21T05:27:28.142Z,18.70
2023-01-21T05:29:56.860Z,17.67
2023-01-21T05:32:24.434Z,16.67
2023-01-21T05:34:51.491Z,18.27
2023-01-21T05:37:18.524Z,17.30
2023-01-21T05:39:45.678Z,19.50
2023-01-21T05:42:13.212Z,18.27
2023-01-21T05:44:40.260Z,20.10
2023-01-21T05:47:08.758Z,20.00
2023-01-21T05:49:35.816Z,19.05
2023-01-21T05:52:02.982Z,21.25
2023-01-21T05:54:30.296Z,19.52
2023-01-21T05:56:57.435Z,20.52
2023-01-21T05:59:24.503Z,19.88
2023-01-21T06:01:51.507Z,21.95
2023-01-21T06:04:18.591Z,21.52
2023-01-21T06:06:45.630Z,21.67
2023-01-21T06:09:13.217Z,21.80
2023-01-21T06:11:42.054Z,21.48
2023-01-21T06:14:09.163Z,22.35
2023-01-21T06:16:36.245Z,23.80
2023-01-21T06:19:03.311Z,22.52
2023-01-21T06:21:30.298Z,22.27
2023-01-21T06:23:57.485Z,21.77
2023-01-21T06:26:27.022Z,22.52
2023-01-21T06:28:57.124Z,23.10
2023-01-21T06:31:24.430Z,21.55
2023-01-21T06:33:52.108Z,23.10
2023-01-21T06:36:19.379Z,22.15
2023-01-21T06:38:46.445Z,22.92
2023-01-21T06:41:13.539Z,21.08
2023-01-21T06:43:41.247Z,23.73
2023-01-21T06:46:08.570Z,21.95
2023-01-21T06:48:35.708Z,22.98
2023-01-21T06:51:03.213Z,23.48
2023-01-21T06:53:30.269Z,23.60
2023-01-21T06:55:57.336Z,25.27
2023-01-21T06:58:24.529Z,24.17
2023-01-21T07:00:51.613Z,22.63
2023-01-21T07:03:18.614Z,23.15
2023-01-21T07:05:45.612Z,23.08
2023-01-21T07:08:13.192Z,23.70
2023-01-21T07:10:40.413Z,21.98
2023-01-21T07:13:07.496Z,22.20
2023-01-21T07:15:34.457Z,21.33
2023-01-21T07:18:01.570Z,19.65
2023-01-21T07:20:28.624Z,23.33
2023-01-21T07:22:56.023Z,22.38
2023-01-21T07:25:23.115Z,23.85
2023-01-21T07:27:50.176Z,23.35
2023-01-21T07:30:19.421Z,22.35
2023-01-21T07:32:47.495Z,22.73
2023-01-21T07:35:15.316Z,22.70
2023-01-21T07:37:43.204Z,26.08
2023-01-21T07:40:11.613Z,24.35
2023-01-21T07:42:39.198Z,22.98
2023-01-21T07:45:07.039Z,25.50
2023-01-21T07:47:34.213Z,27.23
2023-01-21T07:50:04.893Z,23.02
2023-01-21T07:52:32.508Z,24.15
2023-01-21T07:54:59.571Z,23.17
2023-01-21T07:57:26.622Z,24.75
2023-01-21T07:59:53.667Z,25.75
2023-01-21T08:02:20.931Z,25.58
2023-01-21T08:04:48.132Z,22.98
2023-01-21T08:07:15.176Z,23.58
2023-01-21T08:09:42.919Z,26.17
2023-01-21T08:12:10.626Z,26.40
2023-01-21T08:14:38.729Z,24.42
2023-01-21T08:17:05.740Z,26.42
2023-01-21T08:19:32.806Z,24.58
2023-01-21T08:21:59.846Z,25.17
2023-01-21T08:24:26.895Z,26.85
2023-01-21T08:26:57.974Z,26.60
2023-01-21T08:29:26.095Z,27.98
2023-01-21T08:31:53.516Z,27.13
2023-01-21T08:34:20.678Z,25.65
2023-01-21T08:36:47.736Z,25.88
2023-01-21T08:39:18.046Z,25.10
2023-01-21T08:41:45.951Z,27.65
2023-01-21T08:44:13.346Z,26.88
2023-01-21T08:46:40.459Z,28.20
2023-01-21T08:49:07.651Z,27.17
2023-01-21T08:51:34.718Z,25.15
2023-01-21T08:54:01.747Z,26.08
2023-01-21T08:56:28.763Z,25.40
2023-01-21T08:58:57.697Z,26.35
2023-01-21T09:01:26.206Z,25.00
2023-01-21T09:03:57.929Z,24.80
2023-01-21T09:06:27.428Z,27.83
2023-01-21T09:08:55.344Z,27.60
2023-01-21T09:11:23.766Z,27.95
2023-01-21T09:13:50.916Z,28.83
2023-01-21T09:16:21.038Z,27.65
2023-01-21T09:18:49.259Z,26.05
2023-01-21T09:21:16.402Z,28.52
2023-01-21T09:23:44.446Z,27.42
2023-01-21T09:26:17.154Z,27.40
2023-01-21T09:28:46.771Z,25.10
2023-01-21T09:31:16.851Z,26.08
2023-01-21T09:33:46.512Z,25.23
2023-01-21T09:36:16.222Z,27.67
2023-01-21T09:38:44.600Z,27.83
2023-01-21T09:41:46.168Z,30.30
2023-01-21T09:44:31.174Z,27.45
2023-01-21T09:47:04.518Z,27.30
2023-01-21T09:50:08.633Z,26.08
2023-01-21T09:52:44.294Z,25.70
2023-01-21T09:55:25.355Z,24.42
2023-01-21T09:58:16.626Z,27.35
2023-01-21T10:00:52.546Z,26.88
2023-01-21T10:03:47.619Z,26.55
2023-01-21T10:06:21.629Z,24.42
2023-01-21T10:09:00.318Z,25.02
2023-01-21T10:11:53.732Z,24.40
2023-01-21T10:14:55.983Z,28.85
2023-01-21T10:17:31.798Z,28.45
2023-01-21T10:20:21.967Z,34.92
2023-01-21T10:23:28.291Z,26.50
2023-01-21T10:25:59.052Z,25.02
2023-01-21T10:28:30.507Z,25.48
2023-01-21T10:31:08.598Z,25.80
2023-01-21T10:33:35.833Z,21.27
2023-01-21T10:36:17.435Z,24.27
2023-01-21T10:38:53.422Z,23.25
2023-01-21T10:41:50.094Z,24.58
2023-01-21T10:44:26.088Z,24.42
2023-01-21T10:47:14.710Z,24.60
2023-01-21T10:50:19.181Z,24.42
2023-01-21T10:55:26.364Z,23.48
2023-01-21T10:58:28.970Z,25.38
2023-01-21T11:01:01.225Z,27.27
2023-01-21T11:03:47.325Z,27.88
2023-01-21T11:06:17.901Z,28.67
2023-01-21T11:08:49.631Z,28.13
2023-01-21T11:11:28.039Z,25.02
2023-01-21T11:13:56.623Z,23.63
2023-01-21T11:16:45.558Z,25.83
2023-01-21T11:19:21.644Z,24.83
2023-01-21T11:22:04.245Z,22.38
2023-01-21T11:24:41.937Z,23.88
2023-01-21T11:27:23.213Z,22.75
2023-01-21T11:29:50.677Z,21.60
2023-01-21T11:32:21.893Z,22.02
2023-01-21T11:34:51.850Z,22.90
2023-01-21T11:37:24.973Z,22.50
2023-01-21T11:39:59.095Z,23.92
2023-01-21T11:42:26.797Z,22.35
2023-01-21T11:45:01.371Z,21.98
2023-01-21T11:47:36.294Z,20.52
2023-01-21T11:50:35.736Z,22.27
2023-01-21T11:53:11.694Z,21.75
2023-01-21T11:55:46.529Z,20.63
2023-01-21T11:58:25.058Z,20.27
2023-01-21T12:00:56.548Z,21.70
2023-01-21T12:03:37.399Z,25.90
2023-01-21T12:06:07.311Z,25.65
2023-01-21T12:08:39.503Z,21.67
2023-01-21T12:11:08.079Z,23.52
2023-01-21T12:13:47.983Z,21.98
2023-01-21T12:16:30.449Z,22.48
2023-01-21T12:19:22.151Z,23.10
2023-01-21T12:22:07.217Z,21.33
2023-01-21T12:24:36.996Z,21.15
2023-01-21T12:27:32.613Z,20.60
2023-01-21T12:30:21.508Z,21.17
2023-01-21T12:32:56.718Z,22.20
2023-01-21T12:35:28.102Z,19.80
2023-01-21T12:38:01.963Z,22.20
2023-01-21T12:40:36.968Z,19.80
2023-01-21T12:43:13.208Z,20.85
2023-01-21T12:45:49.262Z,22.58
2023-01-21T12:48:29.320Z,21.20
2023-01-21T12:51:25.040Z,21.52
2023-01-21T12:54:16.977Z,19.70
2023-01-21T12:56:50.767Z,20.85
2023-01-21T12:59:29.044Z,20.75
2023-01-21T13:02:14.495Z,21.88
2023-01-21T13:04:51.439Z,22.38
2023-01-21T13:07:42.073Z,21.20
2023-01-21T13:10:27.213Z,21.63
2023-01-21T13:13:06.369Z,21.75
2023-01-21T13:15:36.076Z,21.90
2023-01-21T13:18:13.151Z,20.17
2023-01-21T13:20:47.643Z,22.38
2023-01-21T13:23:26.558Z,21.52
2023-01-21T13:25:56.775Z,20.88
2023-01-21T13:28:42.066Z,19.35
2023-01-21T13:31:28.611Z,20.33
2023-01-21T13:34:17.071Z,19.05
2023-01-21T13:37:06.678Z,17.23
2023-01-21T13:39:46.373Z,19.55
2023-01-21T13:42:23.534Z,18.50
2023-01-21T13:45:30.569Z,17.55
2023-01-21T13:48:17.613Z,16.50
2023-01-21T13:50:53.785Z,17.40
2023-01-21T13:54:12.279Z,17.23
2023-01-21T13:57:00.372Z,16.05
2023-01-21T13:59:50.146Z,16.15
2023-01-21T14:02:32.441Z,16.15
2023-01-21T14:05:12.107Z,14.60
2023-01-21T14:07:47.306Z,16.98
2023-01-21T14:10:42.146Z,17.00
2023-01-21T14:13:27.927Z,15.52
2023-01-21T14:15:57.850Z,16.15
2023-01-21T14:18:43.147Z,15.57
2023-01-21T14:21:10.427Z,15.98
2023-01-21T14:24:18.227Z,16.13
2023-01-21T14:26:48.363Z,16.45
2023-01-21T14:29:29.937Z,15.00
2023-01-21T14:32:04.931Z,15.77
2023-01-21T14:34:43.407Z,16.98
2023-01-21T14:37:30.630Z,16.10
2023-01-21T14:40:18.716Z,15.88
2023-01-21T14:42:53.332Z,17.27
2023-01-21T14:45:23.465Z,17.30
2023-01-21T14:47:58.564Z,16.42
2023-01-21T14:50:47.123Z,15.63
2023-01-21T14:53:24.078Z,16.13
2023-01-21T14:56:33.728Z,14.63
2023-01-21T14:59:04.780Z,15.35
2023-01-21T15:01:43.632Z,14.38
2023-01-21T15:04:41.144Z,14.25
2023-01-21T15:07:19.028Z,14.25
2023-01-21T15:09:54.263Z,14.68
2023-01-21T15:12:27.197Z,15.35
2023-01-21T15:15:00.776Z,14.15
2023-01-21T15:17:47.222Z,14.65
2023-01-21T15:20:43.002Z,15.35
2023-01-21T15:23:29.866Z,13.93
2023-01-21T15:26:20.340Z,14.80
2023-01-21T15:28:49.569Z,13.80
2023-01-21T15:31:23.615Z,15.43
2023-01-21T15:34:01.859Z,14.75
2023-01-21T15:36:38.171Z,16.42
2023-01-21T15:39:16.435Z,16.00
2023-01-21T15:41:57.119Z,16.05
2023-01-21T15:44:32.066Z,15.43
2023-01-21T15:47:07.334Z,14.98
2023-01-21T15:49:53.557Z,17.17
2023-01-21T15:53:02.104Z,14.50
2023-01-21T15:56:17.951Z,14.70
2023-01-21T15:59:08.533Z,15.75
2023-01-21T16:01:38.112Z,14.80
2023-01-21T16:04:49.696Z,14.35
2023-01-21T16:07:26.827Z,13.80
2023-01-21T16:10:27.178Z,15.80
2023-01-21T16:13:19.814Z,15.90
2023-01-21T16:16:20.432Z,15.52
2023-01-21T16:18:56.318Z,17.85
2023-01-21T16:21:32.018Z,15.90
2023-01-21T16:24:05.845Z,15.95
2023-01-21T16:26:33.298Z,15.30
2023-01-21T16:29:00.451Z,15.35
2023-01-21T16:31:27.894Z,16.63
2023-01-21T16:33:55.739Z,16.10
2023-01-21T16:36:23.044Z,14.20
2023-01-21T16:38:50.255Z,15.73
2023-01-21T16:41:24.072Z,15.27
2023-01-21T16:44:00.280Z,16.55
2023-01-21T16:46:38.191Z,15.82
2023-01-21T16:49:14.025Z,15.30
2023-01-21T16:51:50.685Z,15.00
2023-01-21T16:54:17.829Z,15.35
2023-01-21T16:57:00.238Z,16.52
2023-01-21T16:59:42.085Z,16.77
2023-01-21T17:02:22.325Z,14.52
2023-01-21T17:04:49.708Z,16.27
2023-01-21T17:07:21.858Z,15.20
2023-01-21T17:10:17.176Z,16.85
2023-01-21T17:12:55.451Z,15.65
2023-01-21T17:15:36.198Z,16.13
2023-01-21T17:18:05.865Z,16.13
2023-01-21T17:20:42.068Z,15.30
2023-01-21T17:23:29.558Z,13.95
2023-01-21T17:26:19.370Z,14.13
2023-01-21T17:28:53.708Z,12.65
2023-01-21T17:31:26.434Z,15.20
2023-01-21T17:34:14.740Z,14.10
2023-01-21T17:36:50.555Z,14.00
2023-01-21T17:39:57.756Z,15.35
2023-01-21T17:42:29.752Z,14.35
2023-01-21T17:45:04.564Z,13.82
2023-01-21T17:47:35.573Z,14.18
2023-01-21T17:50:22.108Z,13.93
2023-01-21T17:52:52.373Z,14.88
2023-01-21T17:55:19.515Z,17.60
2023-01-21T17:57:46.676Z,15.35
2023-01-21T18:00:36.852Z,15.15
2023-01-21T18:03:04.134Z,16.90
2023-01-21T18:05:31.439Z,17.20
2023-01-21T18:07:58.856Z,17.15
2023-01-21T18:10:29.450Z,17.77
2023-01-21T18:12:58.163Z,18.60
2023-01-21T18:15:26.627Z,17.92
2023-01-21T18:18:00.122Z,17.42
2023-01-21T18:20:29.493Z,17.50
2023-01-21T18:22:58.751Z,17.52
2023-01-21T18:25:27.378Z,15.82
2023-01-21T18:27:55.525Z,18.23
2023-01-21T18:30:27.777Z,16.42
2023-01-21T18:32:56.942Z,16.95
2023-01-21T18:35:29.390Z,17.38
2023-01-21T18:37:57.095Z,18.48
2023-01-21T18:40:24.332Z,18.38
2023-01-21T18:42:55.643Z,18.27
2023-01-21T18:45:27.463Z,18.35
2023-01-21T18:47:56.709Z,21.90
2023-01-21T18:50:26.222Z,19.17
2023-01-21T18:52:53.806Z,17.30
2023-01-21T18:55:25.222Z,22.00
2023-01-21T18:57:52.882Z,21.23
2023-01-21T19:00:29.090Z,20.25
2023-01-21T19:02:58.698Z,21.27
2023-01-21T19:05:47.612Z,20.30
2023-01-21T19:08:21.803Z,18.85
2023-01-21T19:10:48.905Z,18.85
2023-01-21T19:13:16.158Z,21.33
2023-01-21T19:15:45.255Z,22.02
2023-01-21T19:18:14.926Z,22.35
2023-01-21T19:20:43.157Z,17.90
2023-01-21T19:23:17.522Z,19.23
2023-01-21T19:25:51.226Z,19.98
2023-01-21T19:28:18.785Z,20.75
2023-01-21T19:30:46.374Z,22.23
2023-01-21T19:33:13.460Z,19.17
2023-01-21T19:35:44.806Z,18.35
2023-01-21T19:38:15.122Z,20.40
2023-01-21T19:40:43.067Z,21.88
2023-01-21T19:43:14.417Z,21.65
2023-01-21T19:45:43.023Z,17.92
2023-01-21T19:48:15.798Z,18.70
2023-01-21T19:50:43.814Z,19.02
2023-01-21T19:53:15.333Z,18.13
2023-01-21T19:55:44.184Z,18.17
2023-01-21T19:58:20.548Z,18.73
2023-01-21T20:00:49.677Z,16.08
2023-01-21T20:03:18.557Z,18.67
2023-01-21T20:05:47.940Z,22.58
2023-01-21T20:08:25.188Z,18.83
2023-01-21T20:10:52.345Z,14.55
2023-01-21T20:13:19.606Z,17.45
2023-01-21T20:15:48.262Z,15.43
2023-01-21T20:18:22.767Z,19.65
2023-01-21T20:20:50.323Z,17.80
2023-01-21T20:23:19.657Z,17.88
2023-01-21T20:25:51.037Z,16.33
2023-01-21T20:28:51.133Z,19.25
2023-01-21T20:31:18.901Z,17.60
2023-01-21T20:33:46.376Z,17.05
2023-01-21T20:36:22.735Z,20.50
2023-01-21T20:38:50.198Z,20.48
2023-01-21T20:41:17.400Z,15.88
2023-01-21T20:43:44.646Z,20.77
2023-01-21T20:46:14.701Z,17.00
2023-01-21T20:48:43.874Z,18.98
2023-01-21T20:51:12.154Z,19.08
2023-01-21T20:53:39.633Z,18.98
2023-01-21T20:56:23.344Z,17.92
2023-01-21T20:58:50.638Z,21.60
2023-01-21T21:01:20.183Z,18.08
2023-01-21T21:03:48.157Z,17.10
2023-01-21T21:06:19.049Z,17.30
2023-01-21T21:08:47.013Z,17.63
2023-01-21T21:11:15.486Z,18.92
2023-01-21T21:13:43.477Z,18.95
2023-01-21T21:16:21.853Z,17.40
2023-01-21T21:18:49.403Z,19.65
2023-01-21T21:21:17.209Z,19.27
2023-01-21T21:23:47.451Z,18.00
2023-01-21T21:26:33.439Z,18.17
2023-01-21T21:29:00.617Z,15.35
2023-01-21T21:31:32.764Z,18.45
2023-01-21T21:34:00.347Z,18.00
2023-01-21T21:36:27.438Z,16.88
2023-01-21T21:38:57.300Z,19.08
2023-01-21T21:41:44.927Z,17.20
2023-01-21T21:44:13.606Z,17.38
2023-01-21T21:46:59.684Z,19.80
2023-01-21T21:49:27.548Z,19.60
2023-01-21T21:51:54.962Z,18.60
2023-01-21T21:54:23.509Z,17.80
2023-01-21T21:56:50.564Z,18.80
2023-01-21T21:59:17.644Z,19.27
2023-01-21T22:01:44.826Z,16.73
2023-01-21T22:04:12.291Z,16.85
2023-01-21T22:06:39.580Z,19.80
2023-01-21T22:09:07.444Z,17.42
2023-01-21T22:11:34.652Z,19.67
2023-01-21T22:14:04.016Z,16.83
2023-01-21T22:16:32.363Z,17.40
2023-01-21T22:19:01.090Z,16.63
2023-01-21T22:21:31.828Z,15.20
2023-01-21T22:23:59.849Z,15.73
2023-01-21T22:26:28.529Z,18.27
2023-01-21T22:28:56.604Z,17.33
2023-01-21T22:31:28.904Z,17.17
2023-01-21T22:33:57.574Z,15.60
2023-01-21T22:36:26.857Z,15.45
2023-01-21T22:38:57.043Z,20.10
2023-01-21T22:41:25.383Z,17.67
2023-01-21T22:43:53.309Z,19.33
2023-01-21T22:46:30.053Z,17.45
2023-01-21T22:48:57.626Z,16.45
2023-01-21T22:51:25.339Z,16.42
2023-01-21T22:53:53.310Z,15.75
2023-01-21T22:56:28.184Z,17.23
2023-01-21T22:59:07.406Z,15.63
2023-01-21T23:01:36.400Z,16.05
2023-01-21T23:04:03.509Z,17.02
2023-01-21T23:06:30.641Z,17.77
2023-01-21T23:08:57.700Z,16.92
2023-01-21T23:11:25.211Z,16.40
2023-01-21T23:13:57.292Z,15.07
2023-01-21T23:16:25.005Z,17.92
2023-01-21T23:18:52.227Z,14.18
2023-01-21T23:21:21.323Z,16.15
2023-01-21T23:23:49.416Z,15.63
2023-01-21T23:26:19.262Z,15.05
2023-01-21T23:28:46.562Z,15.52
2023-01-21T23:31:17.197Z,14.60
2023-01-21T23:33:44.518Z,15.63
2023-01-21T23:36:15.757Z,14.98
2023-01-21T23:38:45.785Z,14.85
2023-01-21T23:41:16.812Z,15.98
2023-01-21T23:43:44.121Z,15.57
2023-01-21T23:46:16.338Z,16.77
2023-01-21T23:48:43.875Z,19.15
2023-01-21T23:51:15.499Z,18.23
2023-01-21T23:53:44.020Z,18.23
2023-01-21T23:56:19.391Z,15.32
2023-01-21T23:58:46.587Z,14.85
